Time;durP1;ratioP1;P1;durP2;ratioP2;P2;SDS_P1;SDS_P2;PMS_P1;PMS_P2;Temp;Humidity;BMP_temperature;BMP_pressure;BME280_temperature;BME280_humidity;BME280_pressure;Samples;Min_cycle;Max_cycle;Signal;HPM_P1;HPM_P2
2023/10/26 00:01:47;;;;;;;;;;;17.30;61.80;;;;;;4994188;28;89656;-45
2023/10/26 00:04:12;;;;;;;;;;;17.30;61.80;;;;;;4993507;28;86528;-45
2023/10/26 00:06:38;;;;;;;;;;;17.30;61.90;;;;;;4995517;28;87040;-45
2023/10/26 00:09:03;;;;;;;;;;;17.30;61.80;;;;;;4992021;28;88170;-44
2023/10/26 00:11:30;;;;;;;;;;;17.30;61.80;;;;;;4994330;28;88020;-44
2023/10/26 00:13:56;;;;;;;;;;;17.30;61.80;;;;;;4993320;28;88365;-44
2023/10/26 00:16:21;;;;;;;;;;;17.30;61.80;;;;;;4993617;28;88084;-45
2023/10/26 00:18:47;;;;;;;;;;;17.30;61.90;;;;;;4997380;28;87168;-45
2023/10/26 00:21:13;;;;;;;;;;;17.30;62.40;;;;;;4992663;28;88466;-45
2023/10/26 00:23:38;;;;;;;;;;;17.30;61.80;;;;;;4995177;28;87213;-44
2023/10/26 00:26:04;;;;;;;;;;;17.30;61.90;;;;;;4992136;28;87327;-44
2023/10/26 00:28:29;;;;;;;;;;;17.30;61.90;;;;;;4995276;28;86586;-44
2023/10/26 00:30:55;;;;;;;;;;;17.20;61.80;;;;;;4992724;28;87168;-44
2023/10/26 00:33:21;;;;;;;;;;;17.20;61.80;;;;;;4994105;28;87516;-45
2023/10/26 00:35:47;;;;;;;;;;;17.20;61.80;;;;;;4992971;28;89176;-44
2023/10/26 00:38:12;;;;;;;;;;;17.20;61.80;;;;;;4992541;28;87134;-46
2023/10/26 00:40:38;;;;;;;;;;;17.20;61.80;;;;;;4997527;28;87266;-44
2023/10/26 00:43:06;;;;;;;;;;;17.20;61.90;;;;;;4991765;28;86953;-44
2023/10/26 00:45:35;;;;;;;;;;;17.20;61.90;;;;;;4994341;28;87325;-44
2023/10/26 00:48:01;;;;;;;;;;;17.20;61.90;;;;;;4991798;28;89290;-45
2023/10/26 00:50:26;;;;;;;;;;;17.20;61.90;;;;;;4991129;28;87018;-45
2023/10/26 00:52:52;;;;;;;;;;;17.20;61.90;;;;;;4994857;28;87410;-44
2023/10/26 00:55:18;;;;;;;;;;;17.20;61.80;;;;;;4991282;28;87768;-45
2023/10/26 00:57:44;;;;;;;;;;;17.20;61.90;;;;;;4995145;28;87247;-44
2023/10/26 01:00:11;;;;;;;;;;;17.20;61.80;;;;;;4991866;28;88035;-44
2023/10/26 01:02:37;;;;;;;;;;;17.10;61.90;;;;;;4996255;28;88087;-46
2023/10/26 01:05:03;;;;;;;;;;;17.10;61.90;;;;;;4993314;28;87327;-43
2023/10/26 01:07:29;;;;;;;;;;;17.20;61.90;;;;;;4991949;28;89268;-45
2023/10/26 01:09:55;;;;;;;;;;;17.10;61.90;;;;;;4994241;28;87164;-45
2023/10/26 01:12:20;;;;;;;;;;;17.10;62.00;;;;;;4991407;28;88006;-44
2023/10/26 01:14:46;;;;;;;;;;;17.10;62.00;;;;;;4994065;28;88208;-44
2023/10/26 01:17:11;;;;;;;;;;;17.10;62.00;;;;;;4992307;28;86281;-46
2023/10/26 01:19:41;;;;;;;;;;;17.10;62.00;;;;;;4993660;28;87010;-44
2023/10/26 01:22:07;;;;;;;;;;;17.10;62.00;;;;;;4993292;28;87954;-44
2023/10/26 01:24:33;;;;;;;;;;;17.10;61.90;;;;;;4993927;28;87993;-44
2023/10/26 01:26:58;;;;;;;;;;;17.10;61.90;;;;;;4993780;28;89746;-44
2023/10/26 01:29:23;;;;;;;;;;;17.10;61.90;;;;;;4990901;28;87188;-44
2023/10/26 01:31:49;;;;;;;;;;;17.10;62.00;;;;;;4994106;28;87539;-45
2023/10/26 01:34:14;;;;;;;;;;;17.10;62.00;;;;;;4991771;28;88172;-44
2023/10/26 01:36:40;;;;;;;;;;;17.10;62.00;;;;;;4992866;28;87152;-43
2023/10/26 01:39:05;;;;;;;;;;;17.10;62.00;;;;;;4992878;28;87388;-44
2023/10/26 01:41:32;;;;;;;;;;;17.10;62.00;;;;;;4992208;28;87324;-44
2023/10/26 01:43:58;;;;;;;;;;;17.00;62.00;;;;;;4996872;28;87087;-45
2023/10/26 01:46:23;;;;;;;;;;;17.00;62.00;;;;;;4990597;28;88083;-45
2023/10/26 01:48:49;;;;;;;;;;;17.00;62.00;;;;;;4993465;28;88224;-44
2023/10/26 01:51:14;;;;;;;;;;;17.00;62.00;;;;;;4991438;28;88389;-44
2023/10/26 01:53:40;;;;;;;;;;;17.00;62.00;;;;;;4992327;28;88571;-44
2023/10/26 01:56:06;;;;;;;;;;;17.00;62.00;;;;;;4992895;28;87004;-45
2023/10/26 01:58:31;;;;;;;;;;;17.00;62.10;;;;;;4991902;28;87506;-44
2023/10/26 02:00:57;;;;;;;;;;;17.00;62.10;;;;;;4993557;28;88309;-44
2023/10/26 02:03:22;;;;;;;;;;;17.00;62.00;;;;;;4990505;28;87170;-46
2023/10/26 02:05:48;;;;;;;;;;;17.00;62.00;;;;;;4996684;28;88890;-45
2023/10/26 02:08:14;;;;;;;;;;;17.00;62.10;;;;;;4990791;28;87117;-44
2023/10/26 02:10:41;;;;;;;;;;;17.00;62.10;;;;;;4992781;28;87026;-44
2023/10/26 02:13:07;;;;;;;;;;;16.90;62.10;;;;;;4991581;28;88762;-44
2023/10/26 02:15:32;;;;;;;;;;;17.00;62.00;;;;;;4991524;28;87136;-45
2023/10/26 02:17:58;;;;;;;;;;;17.00;62.10;;;;;;4993920;28;87630;-44
2023/10/26 02:20:23;;;;;;;;;;;17.00;62.00;;;;;;4990180;28;87039;-44
2023/10/26 02:22:49;;;;;;;;;;;16.90;62.10;;;;;;4993786;28;87212;-44
2023/10/26 02:25:15;;;;;;;;;;;16.90;62.10;;;;;;4991180;28;87425;-44
2023/10/26 02:27:40;;;;;;;;;;;16.90;62.00;;;;;;4994705;28;89320;-45
2023/10/26 02:30:06;;;;;;;;;;;16.90;62.20;;;;;;4992659;28;87400;-46
2023/10/26 02:32:32;;;;;;;;;;;16.90;62.20;;;;;;4990909;28;88424;-45
2023/10/26 02:34:57;;;;;;;;;;;16.90;62.20;;;;;;4993369;28;87146;-44
2023/10/26 02:37:23;;;;;;;;;;;16.90;62.20;;;;;;4988055;28;89280;-45
2023/10/26 02:39:48;;;;;;;;;;;16.90;62.20;;;;;;4993274;28;88082;-44
2023/10/26 02:42:14;;;;;;;;;;;16.90;62.20;;;;;;4991030;28;87349;-43
2023/10/26 02:44:39;;;;;;;;;;;16.90;62.10;;;;;;4992194;28;88660;-44
2023/10/26 02:47:05;;;;;;;;;;;16.90;62.20;;;;;;4991204;28;88471;-45
2023/10/26 02:49:30;;;;;;;;;;;16.90;62.20;;;;;;4994422;28;87169;-46
2023/10/26 02:51:56;;;;;;;;;;;16.90;62.20;;;;;;4992058;28;87932;-44
2023/10/26 02:54:23;;;;;;;;;;;16.80;62.20;;;;;;4990717;28;86425;-44
2023/10/26 02:56:48;;;;;;;;;;;16.80;62.20;;;;;;4989957;28;87141;-46
2023/10/26 02:59:13;;;;;;;;;;;16.80;62.20;;;;;;4992537;28;88366;-44
2023/10/26 03:01:39;;;;;;;;;;;16.80;62.20;;;;;;4990321;28;88069;-44
2023/10/26 03:04:05;;;;;;;;;;;16.90;62.20;;;;;;4991971;28;88316;-45
2023/10/26 03:06:35;;;;;;;;;;;16.80;62.20;;;;;;4991506;28;88025;-45
2023/10/26 03:09:01;;;;;;;;;;;16.80;62.20;;;;;;4989983;28;87073;-47
2023/10/26 03:11:26;;;;;;;;;;;16.80;62.20;;;;;;4995888;28;87439;-45
2023/10/26 03:13:52;;;;;;;;;;;16.80;62.30;;;;;;4990155;28;87143;-44
2023/10/26 03:16:17;;;;;;;;;;;16.80;62.20;;;;;;4992447;28;87376;-44
2023/10/26 03:18:43;;;;;;;;;;;16.80;62.30;;;;;;4992069;28;87604;-45
2023/10/26 03:21:08;;;;;;;;;;;16.80;62.20;;;;;;4994606;28;87140;-45
2023/10/26 03:23:34;;;;;;;;;;;16.80;62.20;;;;;;4995659;28;87492;-43
2023/10/26 03:26:00;;;;;;;;;;;16.80;62.30;;;;;;4992408;28;89572;-44
2023/10/26 03:28:25;;;;;;;;;;;16.70;62.30;;;;;;5002964;28;87224;-46
2023/10/26 03:30:51;;;;;;;;;;;16.70;62.40;;;;;;4995828;28;87249;-44
2023/10/26 03:33:16;;;;;;;;;;;16.70;62.30;;;;;;4995633;28;87109;-44
2023/10/26 03:35:42;;;;;;;;;;;16.70;62.40;;;;;;4994125;28;87296;-44
2023/10/26 03:38:08;;;;;;;;;;;16.70;62.40;;;;;;4994049;28;88256;-44
2023/10/26 03:40:34;;;;;;;;;;;16.70;62.50;;;;;;4995341;28;87094;-44
2023/10/26 03:42:59;;;;;;;;;;;16.70;62.30;;;;;;4993776;28;87429;-44
2023/10/26 03:45:26;;;;;;;;;;;16.70;62.40;;;;;;4995727;28;88091;-44
2023/10/26 03:47:52;;;;;;;;;;;16.70;62.40;;;;;;4993018;28;87128;-44
2023/10/26 03:50:18;;;;;;;;;;;16.70;62.40;;;;;;4994743;28;87916;-45
2023/10/26 03:52:44;;;;;;;;;;;16.70;62.40;;;;;;4996190;28;89674;-46
2023/10/26 03:55:09;;;;;;;;;;;16.70;62.30;;;;;;4994170;28;87239;-44
2023/10/26 03:57:35;;;;;;;;;;;16.70;62.40;;;;;;4994803;28;87190;-45
2023/10/26 04:00:01;;;;;;;;;;;16.70;62.50;;;;;;4992933;28;87229;-43
2023/10/26 04:02:26;;;;;;;;;;;16.70;62.50;;;;;;4995968;28;87546;-46
2023/10/26 04:04:52;;;;;;;;;;;16.70;62.50;;;;;;4992312;28;88464;-44
2023/10/26 04:07:18;;;;;;;;;;;16.60;62.40;;;;;;4995323;28;86402;-45
2023/10/26 04:09:43;;;;;;;;;;;16.60;62.50;;;;;;4993572;28;87148;-44
2023/10/26 04:12:09;;;;;;;;;;;16.60;62.50;;;;;;4993683;28;87934;-45
2023/10/26 04:14:34;;;;;;;;;;;16.60;62.50;;;;;;4996731;28;88072;-46
2023/10/26 04:17:00;;;;;;;;;;;16.60;62.50;;;;;;4992778;28;87923;-44
2023/10/26 04:19:26;;;;;;;;;;;16.60;62.50;;;;;;4995819;28;87169;-44
2023/10/26 04:21:51;;;;;;;;;;;16.60;62.60;;;;;;4992125;28;88831;-45
2023/10/26 04:24:17;;;;;;;;;;;16.60;62.60;;;;;;4994678;28;87773;-44
2023/10/26 04:26:42;;;;;;;;;;;16.60;62.50;;;;;;4993193;28;87144;-44
2023/10/26 04:29:08;;;;;;;;;;;16.60;62.60;;;;;;4993416;28;88845;-44
2023/10/26 04:31:34;;;;;;;;;;;16.60;62.70;;;;;;4991224;28;87445;-44
2023/10/26 04:33:59;;;;;;;;;;;16.60;62.50;;;;;;4994627;28;87115;-44
2023/10/26 04:36:26;;;;;;;;;;;16.60;63.20;;;;;;4994739;28;87455;-45
2023/10/26 04:38:51;;;;;;;;;;;16.60;62.70;;;;;;4994539;28;87834;-44
2023/10/26 04:41:17;;;;;;;;;;;16.60;62.50;;;;;;4992751;28;88505;-44
2023/10/26 04:43:42;;;;;;;;;;;16.60;62.80;;;;;;4993854;28;88303;-45
2023/10/26 04:46:08;;;;;;;;;;;16.50;62.60;;;;;;5000558;28;87104;-43
2023/10/26 04:48:33;;;;;;;;;;;16.50;62.70;;;;;;4993186;28;87643;-44
2023/10/26 04:50:59;;;;;;;;;;;16.50;62.70;;;;;;4993443;28;88100;-44
2023/10/26 04:53:24;;;;;;;;;;;16.50;62.60;;;;;;4992139;28;87425;-44
2023/10/26 04:55:50;;;;;;;;;;;16.50;62.60;;;;;;4995645;28;87474;-44
2023/10/26 04:58:15;;;;;;;;;;;16.50;62.60;;;;;;4994578;28;88225;-44
2023/10/26 05:00:41;;;;;;;;;;;16.50;62.60;;;;;;4994163;28;87278;-44
2023/10/26 05:03:06;;;;;;;;;;;16.50;62.70;;;;;;4991584;28;90362;-45
2023/10/26 05:05:32;;;;;;;;;;;16.50;62.70;;;;;;4993234;28;86915;-44
2023/10/26 05:07:57;;;;;;;;;;;16.50;62.70;;;;;;4993837;28;87505;-44
2023/10/26 05:10:23;;;;;;;;;;;16.50;62.70;;;;;;4991510;28;89357;-45
2023/10/26 05:12:48;;;;;;;;;;;16.50;62.80;;;;;;4994670;28;87163;-44
2023/10/26 05:15:14;;;;;;;;;;;16.50;62.70;;;;;;4991317;28;87919;-46
2023/10/26 05:17:39;;;;;;;;;;;16.50;62.70;;;;;;4993964;28;88005;-44
2023/10/26 05:20:05;;;;;;;;;;;16.40;62.60;;;;;;4994466;28;86384;-44
2023/10/26 05:22:32;;;;;;;;;;;16.50;62.70;;;;;;4999688;28;90039;-44
2023/10/26 05:24:59;;;;;;;;;;;16.50;62.70;;;;;;4991907;28;87519;-43
2023/10/26 05:27:25;;;;;;;;;;;16.40;62.70;;;;;;4989388;28;88132;-44
2023/10/26 05:29:50;;;;;;;;;;;16.40;62.80;;;;;;4987319;28;88387;-44
2023/10/26 05:32:16;;;;;;;;;;;16.40;62.70;;;;;;4992378;28;87148;-44
2023/10/26 05:34:41;;;;;;;;;;;16.40;62.70;;;;;;4990591;28;89160;-44
2023/10/26 05:37:07;;;;;;;;;;;16.40;62.70;;;;;;4987992;28;88325;-44
2023/10/26 05:39:32;;;;;;;;;;;16.40;62.60;;;;;;4995079;28;87138;-44
2023/10/26 05:41:58;;;;;;;;;;;16.40;62.80;;;;;;4991147;28;88106;-44
2023/10/26 05:44:25;;;;;;;;;;;16.40;62.70;;;;;;4991274;28;86519;-45
2023/10/26 05:46:50;;;;;;;;;;;16.40;62.60;;;;;;4990257;28;87042;-44
2023/10/26 05:49:16;;;;;;;;;;;16.40;62.70;;;;;;4990367;28;87921;-44
2023/10/26 05:51:41;;;;;;;;;;;16.50;62.70;;;;;;4990643;28;88173;-43
2023/10/26 05:54:07;;;;;;;;;;;16.50;62.60;;;;;;4990250;28;88166;-44
2023/10/26 05:56:32;;;;;;;;;;;16.50;62.60;;;;;;4988580;28;87825;-46
2023/10/26 05:58:58;;;;;;;;;;;16.50;62.50;;;;;;4991240;28;87119;-45
2023/10/26 06:01:23;;;;;;;;;;;16.40;62.40;;;;;;4990839;28;88758;-43
2023/10/26 06:03:49;;;;;;;;;;;16.40;62.60;;;;;;4993610;28;87914;-44
2023/10/26 06:06:14;;;;;;;;;;;16.40;62.70;;;;;;4989416;28;87771;-44
2023/10/26 06:08:40;;;;;;;;;;;16.40;62.60;;;;;;4990914;28;88586;-44
2023/10/26 06:11:05;;;;;;;;;;;16.50;62.60;;;;;;4988707;28;87110;-44
2023/10/26 06:13:31;;;;;;;;;;;16.50;62.60;;;;;;4987272;28;87947;-45
2023/10/26 06:15:56;;;;;;;;;;;16.40;62.50;;;;;;4990405;28;88764;-44
2023/10/26 06:18:22;;;;;;;;;;;16.40;62.60;;;;;;4990775;28;87141;-44
2023/10/26 06:20:58;;;;;;;;;;;16.40;62.60;;;;;;4995216;28;88920;-43
2023/10/26 06:23:23;;;;;;;;;;;16.40;62.50;;;;;;4991170;28;88576;-44
2023/10/26 06:25:49;;;;;;;;;;;16.40;62.60;;;;;;4991427;28;87645;-45
2023/10/26 06:28:14;;;;;;;;;;;16.50;62.50;;;;;;4988744;28;88281;-45
2023/10/26 06:30:40;;;;;;;;;;;16.40;62.40;;;;;;4989714;28;88808;-43
2023/10/26 06:33:05;;;;;;;;;;;16.40;62.40;;;;;;4989621;28;87460;-44
2023/10/26 06:35:30;;;;;;;;;;;16.50;62.50;;;;;;4993230;28;88049;-45
2023/10/26 06:37:56;;;;;;;;;;;16.40;62.40;;;;;;4989781;28;87290;-45
2023/10/26 06:40:22;;;;;;;;;;;16.50;62.40;;;;;;4994039;28;90490;-44
2023/10/26 06:42:47;;;;;;;;;;;16.50;62.30;;;;;;4989738;28;88199;-45
2023/10/26 06:45:13;;;;;;;;;;;16.50;62.20;;;;;;4995488;28;87293;-43
2023/10/26 06:47:39;;;;;;;;;;;16.50;62.20;;;;;;4986536;28;87488;-44
2023/10/26 06:50:05;;;;;;;;;;;16.50;62.20;;;;;;4991036;28;87243;-44
2023/10/26 06:52:30;;;;;;;;;;;16.50;62.30;;;;;;4989059;28;87699;-43
2023/10/26 06:54:56;;;;;;;;;;;16.50;62.30;;;;;;4996918;28;91044;-45
2023/10/26 06:57:21;;;;;;;;;;;16.50;62.40;;;;;;4992982;28;86465;-44
2023/10/26 06:59:47;;;;;;;;;;;16.50;62.40;;;;;;4989226;28;87387;-44
2023/10/26 07:02:13;;;;;;;;;;;16.50;62.40;;;;;;4994753;28;87964;-44
2023/10/26 07:04:38;;;;;;;;;;;16.50;62.40;;;;;;4995670;28;88267;-43
2023/10/26 07:07:04;;;;;;;;;;;16.50;62.40;;;;;;4992933;28;89817;-46
2023/10/26 07:09:29;;;;;;;;;;;16.50;62.30;;;;;;4994009;28;87226;-43
2023/10/26 07:11:55;;;;;;;;;;;16.50;62.40;;;;;;4993230;28;87379;-44
2023/10/26 07:14:20;;;;;;;;;;;16.50;62.40;;;;;;4991791;28;88075;-44
2023/10/26 07:16:46;;;;;;;;;;;16.50;62.40;;;;;;4991310;28;88980;-44
2023/10/26 07:19:12;;;;;;;;;;;16.50;62.40;;;;;;4992613;28;87308;-44
2023/10/26 07:21:37;;;;;;;;;;;16.50;62.30;;;;;;4995221;28;87385;-45
2023/10/26 07:24:03;;;;;;;;;;;16.50;62.50;;;;;;4991973;28;87100;-45
2023/10/26 07:26:28;;;;;;;;;;;16.50;62.60;;;;;;4989064;28;87658;-44
2023/10/26 07:28:55;;;;;;;;;;;16.50;62.50;;;;;;4994605;28;89068;-44
2023/10/26 07:31:21;;;;;;;;;;;16.50;62.50;;;;;;4993016;28;88326;-43
2023/10/26 07:33:47;;;;;;;;;;;16.50;62.50;;;;;;4994387;28;88207;-44
2023/10/26 07:36:13;;;;;;;;;;;16.50;62.70;;;;;;4993110;28;87359;-43
2023/10/26 07:38:40;;;;;;;;;;;16.50;62.60;;;;;;4994790;28;87471;-44
2023/10/26 07:41:05;;;;;;;;;;;16.50;62.50;;;;;;4994281;28;87883;-46
2023/10/26 07:43:31;;;;;;;;;;;16.50;62.50;;;;;;4988772;28;88145;-44
2023/10/26 07:45:56;;;;;;;;;;;16.50;62.50;;;;;;4994503;28;87267;-44
2023/10/26 07:48:22;;;;;;;;;;;16.50;62.40;;;;;;4995618;28;87786;-44
2023/10/26 07:50:48;;;;;;;;;;;16.40;62.80;;;;;;4992290;28;88578;-45
2023/10/26 07:53:14;;;;;;;;;;;16.50;62.90;;;;;;4986250;28;90473;-44
2023/10/26 07:55:40;;;;;;;;;;;16.50;62.70;;;;;;4991780;28;87007;-44
2023/10/26 07:58:05;;;;;;;;;;;16.50;62.60;;;;;;4995142;28;87533;-44
2023/10/26 08:00:31;;;;;;;;;;;16.50;62.50;;;;;;4994077;28;88044;-44
2023/10/26 08:03:00;;;;;;;;;;;16.50;62.60;;;;;;4990784;28;87276;-44
2023/10/26 08:05:25;;;;;;;;;;;16.50;62.70;;;;;;4991391;28;87521;-44
2023/10/26 08:07:52;;;;;;;;;;;16.50;62.60;;;;;;4995021;28;88198;-44
2023/10/26 08:10:18;;;;;;;;;;;16.50;62.80;;;;;;4996193;28;88781;-44
2023/10/26 08:12:43;;;;;;;;;;;16.50;62.70;;;;;;4990025;28;87610;-44
2023/10/26 08:15:09;;;;;;;;;;;16.50;62.90;;;;;;4991774;28;87083;-45
2023/10/26 08:17:35;;;;;;;;;;;16.50;62.70;;;;;;4994059;28;88686;-44
2023/10/26 08:20:01;;;;;;;;;;;16.50;62.60;;;;;;4990615;28;87977;-44
2023/10/26 08:22:28;;;;;;;;;;;16.50;62.70;;;;;;4990861;28;87170;-44
2023/10/26 08:24:53;;;;;;;;;;;16.50;62.70;;;;;;4990437;28;88757;-45
2023/10/26 08:27:18;;;;;;;;;;;16.50;62.70;;;;;;4992098;28;87368;-45
2023/10/26 08:29:44;;;;;;;;;;;16.50;62.80;;;;;;4992320;28;87116;-44
2023/10/26 08:32:09;;;;;;;;;;;16.50;62.80;;;;;;4992373;28;88046;-44
2023/10/26 08:34:35;;;;;;;;;;;16.40;62.70;;;;;;4995824;28;86252;-44
2023/10/26 08:37:00;;;;;;;;;;;16.50;62.90;;;;;;4992052;28;87644;-44
2023/10/26 08:39:26;;;;;;;;;;;16.50;62.90;;;;;;4992093;28;87688;-44
2023/10/26 08:41:51;;;;;;;;;;;16.50;63.00;;;;;;4988540;28;88085;-44
2023/10/26 08:44:17;;;;;;;;;;;16.50;63.10;;;;;;4993493;28;88418;-43
2023/10/26 08:46:51;;;;;;;;;;;16.50;63.20;;;;;;4991004;28;90455;-44
2023/10/26 08:49:17;;;;;;;;;;;16.50;63.20;;;;;;4989248;28;87180;-44
2023/10/26 08:51:42;;;;;;;;;;;16.50;63.10;;;;;;4990330;28;87767;-43
2023/10/26 08:54:08;;;;;;;;;;;16.50;63.20;;;;;;4996594;28;88145;-44
2023/10/26 08:56:33;;;;;;;;;;;16.50;63.10;;;;;;4989766;28;87480;-44
2023/10/26 08:58:59;;;;;;;;;;;16.50;63.10;;;;;;4991177;28;87832;-43
2023/10/26 09:01:25;;;;;;;;;;;16.50;63.10;;;;;;4990983;28;87163;-43
2023/10/26 09:03:51;;;;;;;;;;;16.50;63.00;;;;;;4994298;28;88726;-44
2023/10/26 09:06:16;;;;;;;;;;;16.50;63.00;;;;;;4990842;28;89141;-45
2023/10/26 09:08:42;;;;;;;;;;;16.50;63.00;;;;;;4991599;28;87693;-43
2023/10/26 09:11:23;;;;;;;;;;;16.50;63.80;;;;;;4992346;28;87461;-44
2023/10/26 09:13:50;;;;;;;;;;;16.50;63.30;;;;;;4991459;28;87851;-44
2023/10/26 09:16:15;;;;;;;;;;;16.50;63.10;;;;;;4995989;28;89181;-43
2023/10/26 09:18:48;;;;;;;;;;;16.60;63.20;;;;;;4988190;28;88205;-44
2023/10/26 09:21:16;;;;;;;;;;;16.50;63.40;;;;;;4993825;28;86985;-43
2023/10/26 09:23:42;;;;;;;;;;;16.50;63.30;;;;;;4990307;28;87360;-44
2023/10/26 09:26:08;;;;;;;;;;;16.60;63.20;;;;;;4990116;28;88772;-46
2023/10/26 09:28:53;;;;;;;;;;;16.60;63.00;;;;;;4990095;28;87226;-44
2023/10/26 09:31:19;;;;;;;;;;;16.60;63.10;;;;;;4990268;28;87968;-44
2023/10/26 09:33:45;;;;;;;;;;;16.60;63.10;;;;;;4991394;28;88148;-44
2023/10/26 09:36:14;;;;;;;;;;;16.60;63.10;;;;;;4987929;28;88552;-44
2023/10/26 09:38:40;;;;;;;;;;;16.60;63.10;;;;;;4995433;28;87302;-46
2023/10/26 09:41:07;;;;;;;;;;;16.60;63.40;;;;;;4990673;28;87196;-44
2023/10/26 09:43:33;;;;;;;;;;;16.60;63.40;;;;;;4988219;28;88826;-44
2023/10/26 09:45:58;;;;;;;;;;;16.60;63.30;;;;;;4985848;28;87993;-43
2023/10/26 09:48:25;;;;;;;;;;;16.60;63.40;;;;;;4994204;28;86372;-43
2023/10/26 09:50:51;;;;;;;;;;;16.70;63.50;;;;;;4991112;28;87311;-44
2023/10/26 09:53:18;;;;;;;;;;;16.60;63.40;;;;;;4987136;28;88446;-44
2023/10/26 09:55:45;;;;;;;;;;;16.70;63.60;;;;;;4988244;28;88023;-44
2023/10/26 09:58:11;;;;;;;;;;;16.70;63.70;;;;;;4996452;28;88344;-44
2023/10/26 10:00:36;;;;;;;;;;;16.70;64.10;;;;;;4990094;28;87155;-44
2023/10/26 10:03:09;;;;;;;;;;;16.70;63.60;;;;;;4990148;28;88046;-44
2023/10/26 10:05:37;;;;;;;;;;;16.80;63.30;;;;;;4989770;28;88110;-43
2023/10/26 10:08:02;;;;;;;;;;;16.80;63.80;;;;;;4992406;28;87122;-46
2023/10/26 10:10:28;;;;;;;;;;;16.80;63.60;;;;;;4990890;28;88150;-44
2023/10/26 10:12:53;;;;;;;;;;;16.80;63.40;;;;;;4988587;28;86455;-45
2023/10/26 10:15:32;;;;;;;;;;;16.80;63.70;;;;;;4990395;28;87671;-45
2023/10/26 10:17:57;;;;;;;;;;;16.80;63.70;;;;;;4993367;28;87076;-43
2023/10/26 10:20:22;;;;;;;;;;;16.80;63.70;;;;;;4991387;28;89099;-45
2023/10/26 10:22:49;;;;;;;;;;;16.80;63.80;;;;;;4991851;28;87574;-43
2023/10/26 10:25:18;;;;;;;;;;;16.80;63.70;;;;;;4990461;28;88414;-43
2023/10/26 10:27:46;;;;;;;;;;;16.80;63.70;;;;;;4993756;28;87127;-44
2023/10/26 10:30:11;;;;;;;;;;;16.80;63.80;;;;;;4992898;28;87322;-44
2023/10/26 10:32:46;;;;;;;;;;;16.80;63.80;;;;;;4993923;28;88333;-44
2023/10/26 10:35:13;;;;;;;;;;;16.80;63.90;;;;;;4994237;28;87195;-43
2023/10/26 10:37:38;;;;;;;;;;;16.80;64.20;;;;;;4995510;28;87558;-44
2023/10/26 10:40:16;;;;;;;;;;;16.80;64.00;;;;;;4991415;28;87842;-44
2023/10/26 10:42:49;;;;;;;;;;;16.90;64.10;;;;;;4995138;28;87843;-43
2023/10/26 10:45:15;;;;;;;;;;;16.90;64.80;;;;;;4994302;28;89077;-44
2023/10/26 10:47:41;;;;;;;;;;;16.90;64.00;;;;;;4994911;28;87260;-44
2023/10/26 10:50:16;;;;;;;;;;;16.90;64.00;;;;;;4989920;28;88871;-43
2023/10/26 10:52:42;;;;;;;;;;;16.90;64.10;;;;;;4993897;28;87192;-44
2023/10/26 10:55:08;;;;;;;;;;;16.90;64.20;;;;;;4995645;28;87098;-44
2023/10/26 10:57:33;;;;;;;;;;;16.90;64.10;;;;;;4991107;28;88214;-44
2023/10/26 10:59:59;;;;;;;;;;;16.90;64.40;;;;;;4992669;28;87656;-44
2023/10/26 11:02:24;;;;;;;;;;;16.90;64.10;;;;;;4994183;28;86191;-44
2023/10/26 11:04:52;;;;;;;;;;;16.90;64.40;;;;;;4998008;28;87190;-44
2023/10/26 11:07:17;;;;;;;;;;;16.90;64.40;;;;;;4991635;28;87213;-45
2023/10/26 11:09:44;;;;;;;;;;;16.90;64.40;;;;;;4993759;28;88019;-44
2023/10/26 11:12:11;;;;;;;;;;;16.90;64.40;;;;;;4994562;28;88024;-45
2023/10/26 11:14:36;;;;;;;;;;;16.90;64.50;;;;;;4996886;28;87279;-44
2023/10/26 11:17:02;;;;;;;;;;;16.90;64.40;;;;;;4989373;28;87404;-43
2023/10/26 11:19:28;;;;;;;;;;;16.90;65.20;;;;;;4996213;28;88176;-44
2023/10/26 11:21:55;;;;;;;;;;;16.90;64.60;;;;;;4994290;28;87129;-44
2023/10/26 11:24:28;;;;;;;;;;;16.90;64.60;;;;;;4988418;28;88721;-44
2023/10/26 11:27:10;;;;;;;;;;;16.90;64.60;;;;;;4994257;28;87563;-44
2023/10/26 11:29:36;;;;;;;;;;;16.90;64.60;;;;;;4994210;28;86942;-44
2023/10/26 11:32:01;;;;;;;;;;;16.90;64.50;;;;;;4992177;28;89095;-44
2023/10/26 11:34:28;;;;;;;;;;;16.90;64.60;;;;;;4993012;28;89065;-43
2023/10/26 11:36:54;;;;;;;;;;;16.90;64.60;;;;;;4991516;28;88260;-45
2023/10/26 11:39:19;;;;;;;;;;;17.00;64.50;;;;;;4995873;28;87080;-43
2023/10/26 11:41:54;;;;;;;;;;;17.00;64.60;;;;;;4990604;28;87553;-44
2023/10/26 11:44:26;;;;;;;;;;;17.00;64.60;;;;;;4990351;28;87785;-43
2023/10/26 11:46:59;;;;;;;;;;;17.00;64.70;;;;;;4992047;28;87022;-43
2023/10/26 11:49:38;;;;;;;;;;;17.00;64.70;;;;;;4997977;28;87065;-43
2023/10/26 11:52:03;;;;;;;;;;;17.00;64.50;;;;;;4995294;28;88001;-45
2023/10/26 11:54:29;;;;;;;;;;;17.00;64.70;;;;;;4989921;28;88010;-44
2023/10/26 11:56:54;;;;;;;;;;;17.00;64.40;;;;;;4995315;28;87172;-43
2023/10/26 11:59:20;;;;;;;;;;;17.00;64.50;;;;;;4991034;28;89165;-44
2023/10/26 12:01:45;;;;;;;;;;;17.00;64.80;;;;;;4992319;28;88783;-46
2023/10/26 12:04:11;;;;;;;;;;;17.00;64.60;;;;;;4992742;28;87644;-43
2023/10/26 12:06:36;;;;;;;;;;;17.00;64.60;;;;;;4994658;28;88154;-44
2023/10/26 12:09:04;;;;;;;;;;;17.00;64.70;;;;;;4995263;28;87139;-44
2023/10/26 12:11:30;;;;;;;;;;;17.00;64.60;;;;;;4986459;28;88024;-45
2023/10/26 12:13:55;;;;;;;;;;;17.00;64.70;;;;;;4989403;28;87536;-43
2023/10/26 12:16:21;;;;;;;;;;;17.10;64.70;;;;;;4995107;28;87301;-43
2023/10/26 12:18:46;;;;;;;;;;;17.00;64.60;;;;;;4992477;28;87727;-44
2023/10/26 12:21:12;;;;;;;;;;;17.10;65.40;;;;;;4990343;28;87118;-43
2023/10/26 12:23:37;;;;;;;;;;;17.10;64.70;;;;;;4991568;28;88040;-45
2023/10/26 12:26:03;;;;;;;;;;;17.10;64.50;;;;;;4993562;28;88000;-45
2023/10/26 12:28:28;;;;;;;;;;;17.10;64.60;;;;;;4988729;28;87562;-44
2023/10/26 12:30:54;;;;;;;;;;;17.10;64.60;;;;;;4997910;28;87727;-44
2023/10/26 12:33:19;;;;;;;;;;;17.10;64.60;;;;;;4994601;28;87028;-43
2023/10/26 12:35:46;;;;;;;;;;;17.20;64.60;;;;;;4990986;28;87643;-44
2023/10/26 12:38:12;;;;;;;;;;;17.20;64.70;;;;;;4990827;28;89505;-44
2023/10/26 12:40:37;;;;;;;;;;;17.20;64.50;;;;;;4992349;28;86450;-43
2023/10/26 12:43:03;;;;;;;;;;;17.20;64.60;;;;;;4991953;28;87028;-44
2023/10/26 12:45:29;;;;;;;;;;;17.20;64.60;;;;;;4991914;28;88475;-44
2023/10/26 12:47:55;;;;;;;;;;;17.20;64.50;;;;;;4990962;28;88128;-44
2023/10/26 12:50:21;;;;;;;;;;;17.20;64.50;;;;;;4990089;28;90156;-44
2023/10/26 12:52:47;;;;;;;;;;;17.20;64.60;;;;;;4995128;28;87914;-44
2023/10/26 12:55:13;;;;;;;;;;;17.20;64.50;;;;;;4991962;28;88770;-45
2023/10/26 12:57:38;;;;;;;;;;;17.20;64.50;;;;;;4992274;28;91179;-44
2023/10/26 13:00:04;;;;;;;;;;;17.20;64.60;;;;;;4991591;28;87186;-44
2023/10/26 13:02:30;;;;;;;;;;;17.20;64.60;;;;;;4992836;28;87275;-45
2023/10/26 13:04:55;;;;;;;;;;;17.20;64.60;;;;;;4992590;28;87357;-44
2023/10/26 13:07:22;;;;;;;;;;;17.20;64.50;;;;;;4988890;28;87385;-43
2023/10/26 13:09:47;;;;;;;;;;;17.20;64.40;;;;;;4992756;28;87695;-44
2023/10/26 13:12:13;;;;;;;;;;;17.30;64.40;;;;;;4991961;28;89028;-44
2023/10/26 13:14:39;;;;;;;;;;;17.30;64.40;;;;;;4991017;28;88677;-46
2023/10/26 13:17:04;;;;;;;;;;;17.30;64.40;;;;;;4988517;28;88256;-46
2023/10/26 13:19:30;;;;;;;;;;;17.30;64.50;;;;;;4994805;28;87267;-44
2023/10/26 13:21:55;;;;;;;;;;;17.30;64.50;;;;;;4993072;28;87456;-47
2023/10/26 13:24:21;;;;;;;;;;;17.30;64.60;;;;;;4991485;28;88193;-45
2023/10/26 13:26:46;;;;;;;;;;;17.30;64.50;;;;;;4992197;28;87477;-44
2023/10/26 13:29:12;;;;;;;;;;;17.30;64.60;;;;;;4993542;28;86946;-44
2023/10/26 13:31:37;;;;;;;;;;;17.30;64.50;;;;;;4992369;28;88085;-45
2023/10/26 13:34:03;;;;;;;;;;;17.30;64.50;;;;;;4992250;28;87276;-44
2023/10/26 13:36:28;;;;;;;;;;;17.40;64.60;;;;;;4995249;28;90568;-45
2023/10/26 13:38:54;;;;;;;;;;;17.30;64.60;;;;;;4990956;28;87076;-45
2023/10/26 13:41:23;;;;;;;;;;;17.40;64.60;;;;;;4991463;28;87476;-43
2023/10/26 13:43:49;;;;;;;;;;;17.40;64.60;;;;;;4990209;28;88124;-43
2023/10/26 13:46:14;;;;;;;;;;;17.30;64.60;;;;;;4990874;28;87022;-44
2023/10/26 13:48:40;;;;;;;;;;;17.40;64.60;;;;;;4991752;28;87093;-44
2023/10/26 13:51:05;;;;;;;;;;;17.30;64.50;;;;;;4992995;28;88198;-46
2023/10/26 13:53:31;;;;;;;;;;;17.30;64.60;;;;;;4988797;28;87047;-44
2023/10/26 13:55:59;;;;;;;;;;;17.40;64.60;;;;;;4992355;28;87131;-44
2023/10/26 13:58:25;;;;;;;;;;;17.40;64.60;;;;;;4992883;28;87100;-44
2023/10/26 14:00:50;;;;;;;;;;;17.40;64.60;;;;;;4986752;28;88123;-44
2023/10/26 14:03:16;;;;;;;;;;;17.40;64.60;;;;;;4994789;28;87353;-45
2023/10/26 14:05:51;;;;;;;;;;;17.40;64.70;;;;;;4991017;28;87058;-45
2023/10/26 14:08:17;;;;;;;;;;;17.40;64.60;;;;;;4992356;28;88713;-44
2023/10/26 14:10:43;;;;;;;;;;;17.40;64.60;;;;;;4988949;28;88031;-44